sensor_id;sensor_type;location;lat;lon;timestamp;P1;durP1;ratioP1;P2;durP2;ratioP2
70985;SDS011;58645;43.068;25.610;2022-09-13T00:00:43;4.80;;;2.88;;
70985;SDS011;58645;43.068;25.610;2022-09-13T00:03:09;4.32;;;3.00;;
70985;SDS011;58645;43.068;25.610;2022-09-13T00:05:38;4.63;;;2.40;;
70985;SDS011;58645;43.068;25.610;2022-09-13T00:08:04;3.95;;;2.72;;
70985;SDS011;58645;43.068;25.610;2022-09-13T00:10:35;4.57;;;2.30;;
70985;SDS011;58645;43.068;25.610;2022-09-13T00:13:03;6.60;;;2.90;;
70985;SDS011;58645;43.068;25.610;2022-09-13T00:15:29;3.85;;;3.17;;
70985;SDS011;58645;43.068;25.610;2022-09-13T00:17:55;3.15;;;2.80;;
70985;SDS011;58645;43.068;25.610;2022-09-13T00:20:21;3.33;;;2.75;;
70985;SDS011;58645;43.068;25.610;2022-09-13T00:22:47;3.53;;;3.13;;
70985;SDS011;58645;43.068;25.610;2022-09-13T00:25:13;4.95;;;2.90;;
70985;SDS011;58645;43.068;25.610;2022-09-13T00:27:38;5.15;;;2.88;;
70985;SDS011;58645;43.068;25.610;2022-09-13T00:30:05;3.22;;;2.33;;
70985;SDS011;58645;43.068;25.610;2022-09-13T00:32:32;3.88;;;2.78;;
70985;SDS011;58645;43.068;25.610;2022-09-13T00:34:59;3.72;;;3.00;;
70985;SDS011;58645;43.068;25.610;2022-09-13T00:37:30;3.42;;;2.55;;
70985;SDS011;58645;43.068;25.610;2022-09-13T00:39:57;4.05;;;2.67;;
70985;SDS011;58645;43.068;25.610;2022-09-13T00:42:24;3.25;;;2.60;;
70985;SDS011;58645;43.068;25.610;2022-09-13T00:50:03;4.63;;;2.28;;
70985;SDS011;58645;43.068;25.610;2022-09-13T00:52:36;3.80;;;2.65;;
70985;SDS011;58645;43.068;25.610;2022-09-13T00:55:10;3.05;;;2.40;;
70985;SDS011;58645;43.068;25.610;2022-09-13T00:57:42;3.88;;;2.60;;
70985;SDS011;58645;43.068;25.610;2022-09-13T01:00:10;3.67;;;2.88;;
70985;SDS011;58645;43.068;25.610;2022-09-13T01:02:57;3.42;;;2.70;;
70985;SDS011;58645;43.068;25.610;2022-09-13T01:05:26;4.00;;;2.55;;
70985;SDS011;58645;43.068;25.610;2022-09-13T01:08:00;3.47;;;2.70;;
70985;SDS011;58645;43.068;25.610;2022-09-13T01:13:00;3.17;;;2.72;;
70985;SDS011;58645;43.068;25.610;2022-09-13T01:15:38;4.82;;;3.15;;
70985;SDS011;58645;43.068;25.610;2022-09-13T01:18:08;2.92;;;2.33;;
70985;SDS011;58645;43.068;25.610;2022-09-13T01:20:45;6.65;;;3.25;;
70985;SDS011;58645;43.068;25.610;2022-09-13T01:28:40;3.78;;;3.17;;
70985;SDS011;58645;43.068;25.610;2022-09-13T01:39:52;3.85;;;3.20;;
70985;SDS011;58645;43.068;25.610;2022-09-13T01:47:24;4.05;;;2.63;;
70985;SDS011;58645;43.068;25.610;2022-09-13T01:50:10;3.30;;;2.80;;
70985;SDS011;58645;43.068;25.610;2022-09-13T01:52:55;4.28;;;2.95;;
70985;SDS011;58645;43.068;25.610;2022-09-13T01:56:32;5.82;;;3.08;;
70985;SDS011;58645;43.068;25.610;2022-09-13T02:01:24;4.93;;;3.03;;
70985;SDS011;58645;43.068;25.610;2022-09-13T02:04:04;3.35;;;2.67;;
70985;SDS011;58645;43.068;25.610;2022-09-13T02:06:45;4.05;;;2.72;;
70985;SDS011;58645;43.068;25.610;2022-09-13T02:09:44;4.38;;;2.60;;
70985;SDS011;58645;43.068;25.610;2022-09-13T02:12:20;4.05;;;2.50;;
70985;SDS011;58645;43.068;25.610;2022-09-13T02:14:59;5.72;;;2.90;;
70985;SDS011;58645;43.068;25.610;2022-09-13T02:17:37;3.85;;;3.10;;
70985;SDS011;58645;43.068;25.610;2022-09-13T02:20:14;4.72;;;3.30;;
70985;SDS011;58645;43.068;25.610;2022-09-13T02:22:53;4.38;;;3.40;;
70985;SDS011;58645;43.068;25.610;2022-09-13T02:25:22;4.97;;;2.97;;
70985;SDS011;58645;43.068;25.610;2022-09-13T02:27:51;5.18;;;3.17;;
70985;SDS011;58645;43.068;25.610;2022-09-13T02:33:03;6.32;;;2.83;;
70985;SDS011;58645;43.068;25.610;2022-09-13T02:35:48;3.95;;;2.92;;
70985;SDS011;58645;43.068;25.610;2022-09-13T02:38:24;3.30;;;2.75;;
70985;SDS011;58645;43.068;25.610;2022-09-13T02:41:18;4.22;;;2.90;;
70985;SDS011;58645;43.068;25.610;2022-09-13T02:44:05;3.88;;;3.05;;
70985;SDS011;58645;43.068;25.610;2022-09-13T02:52:10;3.97;;;2.90;;
70985;SDS011;58645;43.068;25.610;2022-09-13T02:54:56;5.03;;;3.50;;
70985;SDS011;58645;43.068;25.610;2022-09-13T02:57:33;4.28;;;3.45;;
70985;SDS011;58645;43.068;25.610;2022-09-13T03:00:27;5.45;;;3.85;;
70985;SDS011;58645;43.068;25.610;2022-09-13T03:02:53;4.50;;;3.65;;
70985;SDS011;58645;43.068;25.610;2022-09-13T03:05:23;5.57;;;3.28;;
70985;SDS011;58645;43.068;25.610;2022-09-13T03:07:49;3.92;;;3.40;;
70985;SDS011;58645;43.068;25.610;2022-09-13T03:15:36;7.50;;;5.32;;
70985;SDS011;58645;43.068;25.610;2022-09-13T03:18:23;8.10;;;5.00;;
70985;SDS011;58645;43.068;25.610;2022-09-13T03:35:03;4.38;;;3.22;;
70985;SDS011;58645;43.068;25.610;2022-09-13T03:45:58;6.15;;;3.45;;
70985;SDS011;58645;43.068;25.610;2022-09-13T03:48:27;7.53;;;3.75;;
70985;SDS011;58645;43.068;25.610;2022-09-13T03:50:55;4.78;;;2.67;;
70985;SDS011;58645;43.068;25.610;2022-09-13T03:53:24;5.03;;;3.30;;
70985;SDS011;58645;43.068;25.610;2022-09-13T03:55:53;5.30;;;3.15;;
70985;SDS011;58645;43.068;25.610;2022-09-13T03:58:19;5.47;;;3.33;;
70985;SDS011;58645;43.068;25.610;2022-09-13T04:00:46;5.85;;;3.03;;
70985;SDS011;58645;43.068;25.610;2022-09-13T04:03:12;4.25;;;3.13;;
70985;SDS011;58645;43.068;25.610;2022-09-13T04:05:39;3.97;;;3.20;;
70985;SDS011;58645;43.068;25.610;2022-09-13T04:08:05;6.13;;;3.40;;
70985;SDS011;58645;43.068;25.610;2022-09-13T04:10:31;5.18;;;3.42;;
70985;SDS011;58645;43.068;25.610;2022-09-13T04:12:59;5.78;;;3.50;;
70985;SDS011;58645;43.068;25.610;2022-09-13T04:15:25;4.13;;;3.42;;
70985;SDS011;58645;43.068;25.610;2022-09-13T04:17:51;7.30;;;4.40;;
70985;SDS011;58645;43.068;25.610;2022-09-13T04:20:18;6.57;;;4.47;;
70985;SDS011;58645;43.068;25.610;2022-09-13T04:22:49;8.70;;;5.75;;
70985;SDS011;58645;43.068;25.610;2022-09-13T04:25:19;8.98;;;4.68;;
70985;SDS011;58645;43.068;25.610;2022-09-13T04:27:46;7.90;;;5.30;;
70985;SDS011;58645;43.068;25.610;2022-09-13T04:30:13;12.15;;;4.55;;
70985;SDS011;58645;43.068;25.610;2022-09-13T04:32:41;12.68;;;4.65;;
70985;SDS011;58645;43.068;25.610;2022-09-13T04:35:08;6.28;;;4.65;;
70985;SDS011;58645;43.068;25.610;2022-09-13T04:37:35;7.07;;;4.57;;
70985;SDS011;58645;43.068;25.610;2022-09-13T04:40:02;5.97;;;3.97;;
70985;SDS011;58645;43.068;25.610;2022-09-13T04:42:27;8.02;;;4.18;;
70985;SDS011;58645;43.068;25.610;2022-09-13T04:44:53;10.23;;;4.65;;
70985;SDS011;58645;43.068;25.610;2022-09-13T04:47:19;6.45;;;3.70;;
70985;SDS011;58645;43.068;25.610;2022-09-13T04:49:45;6.10;;;3.85;;
70985;SDS011;58645;43.068;25.610;2022-09-13T04:52:12;6.57;;;4.40;;
70985;SDS011;58645;43.068;25.610;2022-09-13T04:54:38;6.15;;;3.38;;
70985;SDS011;58645;43.068;25.610;2022-09-13T04:57:13;4.15;;;2.97;;
70985;SDS011;58645;43.068;25.610;2022-09-13T04:59:40;3.83;;;3.13;;
70985;SDS011;58645;43.068;25.610;2022-09-13T05:02:07;4.18;;;3.05;;
70985;SDS011;58645;43.068;25.610;2022-09-13T05:04:33;4.95;;;2.65;;
70985;SDS011;58645;43.068;25.610;2022-09-13T05:06:59;5.00;;;2.80;;
70985;SDS011;58645;43.068;25.610;2022-09-13T05:09:25;5.95;;;3.17;;
70985;SDS011;58645;43.068;25.610;2022-09-13T05:11:51;4.07;;;2.90;;
70985;SDS011;58645;43.068;25.610;2022-09-13T05:14:16;3.47;;;3.10;;
70985;SDS011;58645;43.068;25.610;2022-09-13T05:16:42;4.47;;;3.65;;
70985;SDS011;58645;43.068;25.610;2022-09-13T05:19:08;7.10;;;4.05;;
70985;SDS011;58645;43.068;25.610;2022-09-13T05:21:37;6.68;;;3.75;;
70985;SDS011;58645;43.068;25.610;2022-09-13T05:24:03;5.45;;;3.55;;
70985;SDS011;58645;43.068;25.610;2022-09-13T05:26:29;6.82;;;4.78;;
70985;SDS011;58645;43.068;25.610;2022-09-13T05:28:56;5.72;;;2.88;;
70985;SDS011;58645;43.068;25.610;2022-09-13T05:31:26;4.03;;;2.70;;
70985;SDS011;58645;43.068;25.610;2022-09-13T05:33:58;6.70;;;3.65;;
70985;SDS011;58645;43.068;25.610;2022-09-13T05:36:26;4.95;;;3.80;;
70985;SDS011;58645;43.068;25.610;2022-09-13T05:41:18;3.92;;;2.28;;
70985;SDS011;58645;43.068;25.610;2022-09-13T05:46:10;3.30;;;2.13;;
70985;SDS011;58645;43.068;25.610;2022-09-13T05:48:41;4.40;;;2.63;;
70985;SDS011;58645;43.068;25.610;2022-09-13T05:53:41;4.15;;;1.80;;
70985;SDS011;58645;43.068;25.610;2022-09-13T05:56:09;3.55;;;2.22;;
70985;SDS011;58645;43.068;25.610;2022-09-13T05:58:37;4.13;;;2.00;;
70985;SDS011;58645;43.068;25.610;2022-09-13T06:01:08;3.67;;;1.85;;
70985;SDS011;58645;43.068;25.610;2022-09-13T06:03:34;2.63;;;1.83;;
70985;SDS011;58645;43.068;25.610;2022-09-13T06:06:04;3.03;;;2.08;;
70985;SDS011;58645;43.068;25.610;2022-09-13T06:08:31;2.17;;;1.98;;
70985;SDS011;58645;43.068;25.610;2022-09-13T06:11:02;3.00;;;1.83;;
70985;SDS011;58645;43.068;25.610;2022-09-13T06:13:30;2.80;;;1.98;;
70985;SDS011;58645;43.068;25.610;2022-09-13T06:15:57;2.42;;;1.90;;
70985;SDS011;58645;43.068;25.610;2022-09-13T06:18:26;3.38;;;2.25;;
70985;SDS011;58645;43.068;25.610;2022-09-13T06:21:00;2.95;;;2.10;;
70985;SDS011;58645;43.068;25.610;2022-09-13T06:23:30;2.28;;;1.55;;
70985;SDS011;58645;43.068;25.610;2022-09-13T06:28:35;5.03;;;2.30;;
70985;SDS011;58645;43.068;25.610;2022-09-13T06:31:02;2.22;;;1.63;;
70985;SDS011;58645;43.068;25.610;2022-09-13T06:33:33;3.17;;;1.52;;
70985;SDS011;58645;43.068;25.610;2022-09-13T06:36:00;2.65;;;1.90;;
70985;SDS011;58645;43.068;25.610;2022-09-13T06:38:27;2.58;;;1.63;;
70985;SDS011;58645;43.068;25.610;2022-09-13T06:41:07;4.65;;;1.60;;
70985;SDS011;58645;43.068;25.610;2022-09-13T06:43:35;3.20;;;1.70;;
70985;SDS011;58645;43.068;25.610;2022-09-13T06:46:03;2.17;;;1.70;;
70985;SDS011;58645;43.068;25.610;2022-09-13T06:48:37;2.63;;;1.60;;
70985;SDS011;58645;43.068;25.610;2022-09-13T06:51:09;2.05;;;1.50;;
70985;SDS011;58645;43.068;25.610;2022-09-13T06:53:41;3.67;;;1.33;;
70985;SDS011;58645;43.068;25.610;2022-09-13T06:56:09;2.45;;;1.95;;
70985;SDS011;58645;43.068;25.610;2022-09-13T06:58:37;2.97;;;1.50;;
70985;SDS011;58645;43.068;25.610;2022-09-13T07:01:14;3.47;;;1.83;;
70985;SDS011;58645;43.068;25.610;2022-09-13T07:03:41;2.28;;;1.65;;
70985;SDS011;58645;43.068;25.610;2022-09-13T07:06:13;23.58;;;3.10;;
70985;SDS011;58645;43.068;25.610;2022-09-13T07:08:40;5.40;;;2.10;;
70985;SDS011;58645;43.068;25.610;2022-09-13T07:11:08;2.70;;;1.48;;
70985;SDS011;58645;43.068;25.610;2022-09-13T07:13:35;6.93;;;1.83;;
70985;SDS011;58645;43.068;25.610;2022-09-13T07:16:01;3.88;;;1.65;;
70985;SDS011;58645;43.068;25.610;2022-09-13T07:18:29;3.15;;;1.80;;
70985;SDS011;58645;43.068;25.610;2022-09-13T07:20:59;3.15;;;2.10;;
70985;SDS011;58645;43.068;25.610;2022-09-13T07:23:33;2.75;;;2.03;;
70985;SDS011;58645;43.068;25.610;2022-09-13T07:26:01;6.32;;;2.10;;
70985;SDS011;58645;43.068;25.610;2022-09-13T07:28:29;3.42;;;1.60;;
70985;SDS011;58645;43.068;25.610;2022-09-13T07:31:14;6.35;;;2.47;;
70985;SDS011;58645;43.068;25.610;2022-09-13T07:33:42;3.78;;;1.70;;
70985;SDS011;58645;43.068;25.610;2022-09-13T07:36:09;3.35;;;1.55;;
70985;SDS011;58645;43.068;25.610;2022-09-13T07:38:37;3.25;;;1.58;;
70985;SDS011;58645;43.068;25.610;2022-09-13T07:41:23;3.75;;;1.40;;
70985;SDS011;58645;43.068;25.610;2022-09-13T07:43:51;2.53;;;1.35;;
70985;SDS011;58645;43.068;25.610;2022-09-13T07:46:18;4.65;;;1.48;;
70985;SDS011;58645;43.068;25.610;2022-09-13T07:48:56;1.95;;;1.15;;
70985;SDS011;58645;43.068;25.610;2022-09-13T07:51:25;2.55;;;1.23;;
70985;SDS011;58645;43.068;25.610;2022-09-13T07:53:53;4.32;;;1.80;;
70985;SDS011;58645;43.068;25.610;2022-09-13T07:56:22;2.42;;;1.58;;
70985;SDS011;58645;43.068;25.610;2022-09-13T07:58:51;4.70;;;2.00;;
70985;SDS011;58645;43.068;25.610;2022-09-13T08:01:21;1.85;;;1.02;;
70985;SDS011;58645;43.068;25.610;2022-09-13T08:06:18;5.50;;;1.70;;
70985;SDS011;58645;43.068;25.610;2022-09-13T08:08:44;2.42;;;1.85;;
70985;SDS011;58645;43.068;25.610;2022-09-13T08:11:12;4.72;;;1.55;;
70985;SDS011;58645;43.068;25.610;2022-09-13T08:13:49;3.72;;;1.38;;
70985;SDS011;58645;43.068;25.610;2022-09-13T08:16:16;3.53;;;1.70;;
70985;SDS011;58645;43.068;25.610;2022-09-13T08:18:44;2.20;;;1.92;;
70985;SDS011;58645;43.068;25.610;2022-09-13T08:21:11;1.73;;;1.20;;
70985;SDS011;58645;43.068;25.610;2022-09-13T08:23:37;2.25;;;1.15;;
70985;SDS011;58645;43.068;25.610;2022-09-13T08:26:03;1.77;;;1.20;;
70985;SDS011;58645;43.068;25.610;2022-09-13T08:28:32;4.57;;;1.30;;
70985;SDS011;58645;43.068;25.610;2022-09-13T08:31:06;2.17;;;1.15;;
70985;SDS011;58645;43.068;25.610;2022-09-13T08:33:33;5.85;;;1.33;;
70985;SDS011;58645;43.068;25.610;2022-09-13T08:35:59;1.73;;;1.30;;
70985;SDS011;58645;43.068;25.610;2022-09-13T08:38:26;2.03;;;1.80;;
70985;SDS011;58645;43.068;25.610;2022-09-13T08:40:57;2.88;;;1.77;;
70985;SDS011;58645;43.068;25.610;2022-09-13T08:46:05;2.40;;;1.77;;
70985;SDS011;58645;43.068;25.610;2022-09-13T08:48:38;4.15;;;1.20;;
70985;SDS011;58645;43.068;25.610;2022-09-13T08:51:12;2.80;;;0.90;;
70985;SDS011;58645;43.068;25.610;2022-09-13T08:53:54;2.85;;;1.40;;
70985;SDS011;58645;43.068;25.610;2022-09-13T08:56:28;1.80;;;1.17;;
70985;SDS011;58645;43.068;25.610;2022-09-13T08:59:15;2.55;;;1.35;;
70985;SDS011;58645;43.068;25.610;2022-09-13T09:04:49;2.72;;;1.42;;
70985;SDS011;58645;43.068;25.610;2022-09-13T09:07:27;3.15;;;1.30;;
70985;SDS011;58645;43.068;25.610;2022-09-13T09:09:58;1.90;;;1.55;;
70985;SDS011;58645;43.068;25.610;2022-09-13T09:12:28;1.98;;;1.13;;
70985;SDS011;58645;43.068;25.610;2022-09-13T09:15:14;1.95;;;1.75;;
70985;SDS011;58645;43.068;25.610;2022-09-13T09:22:53;2.33;;;1.67;;
70985;SDS011;58645;43.068;25.610;2022-09-13T09:25:23;3.70;;;1.63;;
70985;SDS011;58645;43.068;25.610;2022-09-13T09:27:51;2.38;;;1.63;;
70985;SDS011;58645;43.068;25.610;2022-09-13T09:30:18;4.80;;;2.20;;
70985;SDS011;58645;43.068;25.610;2022-09-13T09:41:00;2.00;;;1.10;;
70985;SDS011;58645;43.068;25.610;2022-09-13T09:43:36;2.97;;;1.30;;
70985;SDS011;58645;43.068;25.610;2022-09-13T09:46:06;2.13;;;1.13;;
70985;SDS011;58645;43.068;25.610;2022-09-13T09:48:42;2.13;;;1.40;;
70985;SDS011;58645;43.068;25.610;2022-09-13T09:51:12;1.55;;;1.35;;
70985;SDS011;58645;43.068;25.610;2022-09-13T09:53:43;2.13;;;1.60;;
70985;SDS011;58645;43.068;25.610;2022-09-13T09:58:51;3.22;;;1.35;;
70985;SDS011;58645;43.068;25.610;2022-09-13T10:01:31;3.28;;;1.90;;
70985;SDS011;58645;43.068;25.610;2022-09-13T10:06:27;2.55;;;1.00;;
70985;SDS011;58645;43.068;25.610;2022-09-13T10:09:05;2.10;;;1.20;;
70985;SDS011;58645;43.068;25.610;2022-09-13T10:17:01;3.55;;;1.65;;
70985;SDS011;58645;43.068;25.610;2022-09-13T10:19:39;3.08;;;1.08;;
70985;SDS011;58645;43.068;25.610;2022-09-13T10:22:11;2.97;;;1.23;;
70985;SDS011;58645;43.068;25.610;2022-09-13T10:24:40;3.00;;;1.67;;
70985;SDS011;58645;43.068;25.610;2022-09-13T10:27:17;2.75;;;1.35;;
70985;SDS011;58645;43.068;25.610;2022-09-13T10:30:04;2.35;;;1.30;;
70985;SDS011;58645;43.068;25.610;2022-09-13T10:32:31;0.90;;;0.63;;
70985;SDS011;58645;43.068;25.610;2022-09-13T10:35:00;1.60;;;0.80;;
70985;SDS011;58645;43.068;25.610;2022-09-13T10:37:34;1.67;;;1.58;;
70985;SDS011;58645;43.068;25.610;2022-09-13T10:40:03;2.03;;;1.13;;
70985;SDS011;58645;43.068;25.610;2022-09-13T10:42:40;2.75;;;1.00;;
70985;SDS011;58645;43.068;25.610;2022-09-13T10:45:24;3.78;;;0.85;;
70985;SDS011;58645;43.068;25.610;2022-09-13T10:50:38;2.08;;;1.48;;
70985;SDS011;58645;43.068;25.610;2022-09-13T10:53:03;1.52;;;1.25;;
70985;SDS011;58645;43.068;25.610;2022-09-13T10:55:53;1.75;;;1.25;;
70985;SDS011;58645;43.068;25.610;2022-09-13T10:58:19;1.45;;;1.02;;
70985;SDS011;58645;43.068;25.610;2022-09-13T11:03:25;1.70;;;1.00;;
70985;SDS011;58645;43.068;25.610;2022-09-13T11:40:00;2.53;;;1.20;;
70985;SDS011;58645;43.068;25.610;2022-09-13T11:48:45;1.85;;;1.13;;
70985;SDS011;58645;43.068;25.610;2022-09-13T11:57:07;1.52;;;0.90;;
70985;SDS011;58645;43.068;25.610;2022-09-13T11:59:48;1.50;;;1.17;;
70985;SDS011;58645;43.068;25.610;2022-09-13T12:05:13;3.17;;;0.85;;
70985;SDS011;58645;43.068;25.610;2022-09-13T12:07:51;1.20;;;0.93;;
70985;SDS011;58645;43.068;25.610;2022-09-13T12:10:24;1.50;;;1.02;;
70985;SDS011;58645;43.068;25.610;2022-09-13T12:12:58;2.50;;;1.50;;
70985;SDS011;58645;43.068;25.610;2022-09-13T12:15:38;4.25;;;1.40;;
70985;SDS011;58645;43.068;25.610;2022-09-13T12:20:50;1.63;;;1.40;;
70985;SDS011;58645;43.068;25.610;2022-09-13T12:23:32;1.98;;;1.20;;
70985;SDS011;58645;43.068;25.610;2022-09-13T12:26:36;1.83;;;1.00;;
70985;SDS011;58645;43.068;25.610;2022-09-13T12:31:49;2.35;;;0.90;;
70985;SDS011;58645;43.068;25.610;2022-09-13T12:34:23;1.70;;;0.93;;
70985;SDS011;58645;43.068;25.610;2022-09-13T12:40:02;2.42;;;1.20;;
70985;SDS011;58645;43.068;25.610;2022-09-13T12:51:14;2.03;;;1.08;;
70985;SDS011;58645;43.068;25.610;2022-09-13T12:53:58;1.65;;;1.25;;
70985;SDS011;58645;43.068;25.610;2022-09-13T12:56:50;2.00;;;0.93;;
70985;SDS011;58645;43.068;25.610;2022-09-13T13:02:18;2.20;;;0.98;;
70985;SDS011;58645;43.068;25.610;2022-09-13T13:05:03;2.22;;;1.10;;
70985;SDS011;58645;43.068;25.610;2022-09-13T13:07:40;2.47;;;0.93;;
70985;SDS011;58645;43.068;25.610;2022-09-13T13:10:23;1.80;;;1.27;;
70985;SDS011;58645;43.068;25.610;2022-09-13T13:12:51;1.23;;;0.90;;
70985;SDS011;58645;43.068;25.610;2022-09-13T13:17:50;1.95;;;1.55;;
70985;SDS011;58645;43.068;25.610;2022-09-13T13:34:00;1.73;;;1.02;;
70985;SDS011;58645;43.068;25.610;2022-09-13T13:39:12;5.32;;;1.55;;
70985;SDS011;58645;43.068;25.610;2022-09-13T13:57:22;1.50;;;0.82;;
70985;SDS011;58645;43.068;25.610;2022-09-13T14:03:02;2.30;;;1.05;;
70985;SDS011;58645;43.068;25.610;2022-09-13T14:05:39;2.80;;;1.30;;
70985;SDS011;58645;43.068;25.610;2022-09-13T14:21:40;2.03;;;1.00;;
70985;SDS011;58645;43.068;25.610;2022-09-13T14:26:51;1.95;;;1.15;;
70985;SDS011;58645;43.068;25.610;2022-09-13T14:29:21;2.03;;;1.33;;
70985;SDS011;58645;43.068;25.610;2022-09-13T14:31:52;3.97;;;1.35;;
70985;SDS011;58645;43.068;25.610;2022-09-13T14:34:25;2.00;;;1.33;;
70985;SDS011;58645;43.068;25.610;2022-09-13T14:36:57;2.30;;;1.13;;
70985;SDS011;58645;43.068;25.610;2022-09-13T14:39:25;3.45;;;1.20;;
70985;SDS011;58645;43.068;25.610;2022-09-13T14:44:41;3.15;;;1.27;;
70985;SDS011;58645;43.068;25.610;2022-09-13T14:49:57;2.58;;;1.00;;
70985;SDS011;58645;43.068;25.610;2022-09-13T14:52:32;2.78;;;1.17;;
70985;SDS011;58645;43.068;25.610;2022-09-13T14:55:12;3.47;;;1.52;;
70985;SDS011;58645;43.068;25.610;2022-09-13T14:57:42;2.63;;;1.20;;
70985;SDS011;58645;43.068;25.610;2022-09-13T15:02:47;2.47;;;1.48;;
70985;SDS011;58645;43.068;25.610;2022-09-13T15:05:16;3.50;;;1.00;;
70985;SDS011;58645;43.068;25.610;2022-09-13T15:07:44;5.65;;;1.05;;
70985;SDS011;58645;43.068;25.610;2022-09-13T15:18:06;2.75;;;1.30;;
70985;SDS011;58645;43.068;25.610;2022-09-13T15:20:56;4.13;;;1.42;;
70985;SDS011;58645;43.068;25.610;2022-09-13T15:23:26;3.35;;;1.00;;
70985;SDS011;58645;43.068;25.610;2022-09-13T15:31:08;2.85;;;0.93;;
70985;SDS011;58645;43.068;25.610;2022-09-13T15:33:43;3.40;;;1.45;;
70985;SDS011;58645;43.068;25.610;2022-09-13T15:38:59;2.33;;;1.52;;
70985;SDS011;58645;43.068;25.610;2022-09-13T15:41:38;3.72;;;1.10;;
70985;SDS011;58645;43.068;25.610;2022-09-13T15:44:06;3.05;;;0.95;;
70985;SDS011;58645;43.068;25.610;2022-09-13T15:46:43;3.17;;;1.13;;
70985;SDS011;58645;43.068;25.610;2022-09-13T15:49:17;11.98;;;2.00;;
70985;SDS011;58645;43.068;25.610;2022-09-13T15:51:45;3.22;;;1.23;;
70985;SDS011;58645;43.068;25.610;2022-09-13T15:54:12;5.32;;;1.08;;
70985;SDS011;58645;43.068;25.610;2022-09-13T15:56:40;4.70;;;1.45;;
70985;SDS011;58645;43.068;25.610;2022-09-13T15:59:14;4.13;;;1.08;;
70985;SDS011;58645;43.068;25.610;2022-09-13T16:01:42;5.18;;;1.35;;
70985;SDS011;58645;43.068;25.610;2022-09-13T16:04:09;3.03;;;1.67;;
70985;SDS011;58645;43.068;25.610;2022-09-13T16:06:35;6.13;;;1.88;;
70985;SDS011;58645;43.068;25.610;2022-09-13T16:11:35;2.53;;;2.00;;
70985;SDS011;58645;43.068;25.610;2022-09-13T16:14:00;1.90;;;1.30;;
70985;SDS011;58645;43.068;25.610;2022-09-13T16:16:27;3.47;;;1.58;;
70985;SDS011;58645;43.068;25.610;2022-09-13T16:18:52;2.45;;;1.80;;
70985;SDS011;58645;43.068;25.610;2022-09-13T16:21:18;2.80;;;1.95;;
70985;SDS011;58645;43.068;25.610;2022-09-13T16:23:44;3.85;;;1.48;;
70985;SDS011;58645;43.068;25.610;2022-09-13T16:26:09;5.20;;;2.17;;
70985;SDS011;58645;43.068;25.610;2022-09-13T16:28:35;6.75;;;1.90;;
70985;SDS011;58645;43.068;25.610;2022-09-13T16:31:01;2.45;;;1.15;;
70985;SDS011;58645;43.068;25.610;2022-09-13T16:33:26;2.92;;;1.73;;
70985;SDS011;58645;43.068;25.610;2022-09-13T16:35:52;4.38;;;1.75;;
70985;SDS011;58645;43.068;25.610;2022-09-13T16:38:18;2.92;;;1.70;;
70985;SDS011;58645;43.068;25.610;2022-09-13T16:40:44;3.10;;;1.90;;
70985;SDS011;58645;43.068;25.610;2022-09-13T16:43:10;2.97;;;2.08;;
70985;SDS011;58645;43.068;25.610;2022-09-13T16:45:37;4.05;;;2.00;;
70985;SDS011;58645;43.068;25.610;2022-09-13T16:48:05;4.07;;;2.42;;
70985;SDS011;58645;43.068;25.610;2022-09-13T16:50:31;3.05;;;2.17;;
70985;SDS011;58645;43.068;25.610;2022-09-13T16:52:57;3.63;;;2.22;;
70985;SDS011;58645;43.068;25.610;2022-09-13T16:55:22;4.60;;;2.53;;
70985;SDS011;58645;43.068;25.610;2022-09-13T16:57:50;3.80;;;2.50;;
70985;SDS011;58645;43.068;25.610;2022-09-13T17:00:16;4.70;;;2.15;;
70985;SDS011;58645;43.068;25.610;2022-09-13T17:02:44;3.20;;;2.20;;
70985;SDS011;58645;43.068;25.610;2022-09-13T17:05:11;3.63;;;2.05;;
70985;SDS011;58645;43.068;25.610;2022-09-13T17:07:37;3.90;;;2.08;;
70985;SDS011;58645;43.068;25.610;2022-09-13T17:10:04;3.88;;;2.00;;
70985;SDS011;58645;43.068;25.610;2022-09-13T17:12:31;3.60;;;2.90;;
70985;SDS011;58645;43.068;25.610;2022-09-13T17:14:57;4.90;;;2.33;;
70985;SDS011;58645;43.068;25.610;2022-09-13T17:19:50;4.70;;;3.10;;
70985;SDS011;58645;43.068;25.610;2022-09-13T17:22:16;5.78;;;2.75;;
70985;SDS011;58645;43.068;25.610;2022-09-13T17:24:42;5.63;;;2.50;;
70985;SDS011;58645;43.068;25.610;2022-09-13T17:27:09;6.43;;;2.70;;
70985;SDS011;58645;43.068;25.610;2022-09-13T17:29:35;17.77;;;6.03;;
70985;SDS011;58645;43.068;25.610;2022-09-13T17:32:01;13.23;;;5.47;;
70985;SDS011;58645;43.068;25.610;2022-09-13T17:34:28;7.88;;;3.35;;
70985;SDS011;58645;43.068;25.610;2022-09-13T17:36:56;8.98;;;3.25;;
70985;SDS011;58645;43.068;25.610;2022-09-13T17:39:22;5.53;;;2.33;;
70985;SDS011;58645;43.068;25.610;2022-09-13T17:41:48;3.65;;;2.05;;
70985;SDS011;58645;43.068;25.610;2022-09-13T17:44:15;7.90;;;1.60;;
70985;SDS011;58645;43.068;25.610;2022-09-13T17:46:40;6.32;;;2.05;;
70985;SDS011;58645;43.068;25.610;2022-09-13T17:49:06;4.75;;;2.10;;
70985;SDS011;58645;43.068;25.610;2022-09-13T17:51:33;5.97;;;1.88;;
70985;SDS011;58645;43.068;25.610;2022-09-13T17:54:00;3.33;;;1.80;;
70985;SDS011;58645;43.068;25.610;2022-09-13T17:56:35;3.67;;;1.98;;
70985;SDS011;58645;43.068;25.610;2022-09-13T17:59:23;4.30;;;1.38;;
70985;SDS011;58645;43.068;25.610;2022-09-13T18:01:49;4.93;;;1.92;;
70985;SDS011;58645;43.068;25.610;2022-09-13T18:04:17;4.13;;;1.50;;
70985;SDS011;58645;43.068;25.610;2022-09-13T18:06:44;6.68;;;2.40;;
70985;SDS011;58645;43.068;25.610;2022-09-13T18:11:38;6.78;;;3.13;;
70985;SDS011;58645;43.068;25.610;2022-09-13T18:14:05;7.00;;;3.28;;
70985;SDS011;58645;43.068;25.610;2022-09-13T18:16:35;7.22;;;3.00;;
70985;SDS011;58645;43.068;25.610;2022-09-13T18:19:01;10.43;;;3.47;;
70985;SDS011;58645;43.068;25.610;2022-09-13T18:21:27;10.70;;;3.88;;
70985;SDS011;58645;43.068;25.610;2022-09-13T18:23:54;12.50;;;5.10;;
70985;SDS011;58645;43.068;25.610;2022-09-13T18:26:23;15.77;;;8.13;;
70985;SDS011;58645;43.068;25.610;2022-09-13T18:28:53;15.23;;;7.32;;
70985;SDS011;58645;43.068;25.610;2022-09-13T18:31:20;17.15;;;7.68;;
70985;SDS011;58645;43.068;25.610;2022-09-13T18:33:52;14.13;;;6.97;;
70985;SDS011;58645;43.068;25.610;2022-09-13T18:36:26;11.73;;;7.28;;
70985;SDS011;58645;43.068;25.610;2022-09-13T18:38:54;13.68;;;6.10;;
70985;SDS011;58645;43.068;25.610;2022-09-13T18:41:21;10.43;;;5.40;;
70985;SDS011;58645;43.068;25.610;2022-09-13T18:43:49;8.63;;;5.03;;
70985;SDS011;58645;43.068;25.610;2022-09-13T18:46:16;8.77;;;4.70;;
70985;SDS011;58645;43.068;25.610;2022-09-13T18:48:46;8.27;;;4.53;;
70985;SDS011;58645;43.068;25.610;2022-09-13T18:51:16;10.25;;;4.40;;
70985;SDS011;58645;43.068;25.610;2022-09-13T18:53:44;10.63;;;4.20;;
70985;SDS011;58645;43.068;25.610;2022-09-13T18:56:11;8.77;;;4.00;;
70985;SDS011;58645;43.068;25.610;2022-09-13T18:58:39;5.55;;;3.78;;
70985;SDS011;58645;43.068;25.610;2022-09-13T19:01:06;7.80;;;3.20;;
70985;SDS011;58645;43.068;25.610;2022-09-13T19:03:36;3.85;;;2.55;;
70985;SDS011;58645;43.068;25.610;2022-09-13T19:06:13;4.38;;;3.10;;
70985;SDS011;58645;43.068;25.610;2022-09-13T19:08:41;5.68;;;2.50;;
70985;SDS011;58645;43.068;25.610;2022-09-13T19:11:07;5.30;;;2.47;;
70985;SDS011;58645;43.068;25.610;2022-09-13T19:13:34;6.72;;;3.42;;
70985;SDS011;58645;43.068;25.610;2022-09-13T19:16:02;5.88;;;3.58;;
70985;SDS011;58645;43.068;25.610;2022-09-13T19:18:29;5.50;;;3.33;;
70985;SDS011;58645;43.068;25.610;2022-09-13T19:21:09;4.00;;;2.85;;